Letona, Arkansas
Current Conditions -  °F | °C
As of 8:56 PM on Monday 26 Jan 2015 (Local Time) from KSRC Reporting Station
Clear Clear  
Wind Chill: 48°   Ceiling: Unl
Heat Index: 48°   Visibility: 10mi
Dew Point: 34°   Wind: 3mph
Humidity: 58%   Direction: NA
Pressure: 29.99"   Gusts: NA
Location:  35.36°N, 91.83°W
Report Text: KSRC 270256Z AUTO VRB03KT 10SM CLR 09/01 A2999 RMK AO2 SLP162 T00890011 50005 TSNO
Loading
Personal Weather Stations






























Interactive Weather Map New forecast layout! Learn more

10-Day Weather Forecast

Advertisements
Track Severe Weather on mobile